Time;durP1;ratioP1;P1;durP2;ratioP2;P2;SDS_P1;SDS_P2;PMS_P1;PMS_P2;Temp;Humidity;BMP_temperature;BMP_pressure;BME280_temperature;BME280_humidity;BME280_pressure;Samples;Min_cycle;Max_cycle;Signal;HPM_P1;HPM_P2
2023/03/30 00:01:35;;;;;;;15.77;6.68;;;;;;;;;;5026771;28;20035;-46
2023/03/30 05:07:53;;;;;;;4.88;0.90;;;;;;;;;;5021524;28;20100;-46
2023/03/30 05:10:20;;;;;;;3.47;0.80;;;;;;;;;;5027034;28;20032;-47
2023/03/30 05:12:47;;;;;;;4.70;0.88;;;;;;;;;;5008435;28;20088;-45
2023/03/30 05:15:13;;;;;;;3.80;0.77;;;;;;;;;;5030714;28;20037;-45
2023/03/30 05:17:39;;;;;;;4.82;1.10;;;;;;;;;;5048531;28;20519;-46
2023/03/30 05:20:09;;;;;;;4.95;0.90;;;;;;;;;;5039727;28;20029;-47
2023/03/30 05:22:35;;;;;;;3.25;1.10;;;;;;;;;;5028579;28;20026;-49
2023/03/30 05:25:02;;;;;;;2.85;0.75;;;;;;;;;;5028652;28;20500;-47
2023/03/30 05:27:28;;;;;;;3.05;0.75;;;;;;;;;;5027365;28;20029;-48
2023/03/30 05:29:55;;;;;;;1.95;1.00;;;;;;;;;;5040045;28;20021;-48
2023/03/30 05:32:21;;;;;;;7.25;1.00;;;;;;;;;;5047493;28;20032;-49
2023/03/30 05:34:47;;;;;;;4.57;1.00;;;;;;;;;;5027582;28;20025;-46
2023/03/30 05:37:14;;;;;;;4.63;0.95;;;;;;;;;;5026934;28;20035;-46
2023/03/30 05:39:40;;;;;;;7.05;1.15;;;;;;;;;;5027362;28;20035;-45
2023/03/30 05:42:06;;;;;;;3.17;1.00;;;;;;;;;;5027821;28;20104;-46
2023/03/30 05:44:33;;;;;;;3.30;0.82;;;;;;;;;;5027931;28;20109;-44
2023/03/30 05:46:59;;;;;;;3.40;0.75;;;;;;;;;;5027864;28;20579;-45
2023/03/30 05:49:25;;;;;;;4.75;1.45;;;;;;;;;;5028291;28;20025;-46
2023/03/30 05:51:52;;;;;;;4.30;1.25;;;;;;;;;;5027395;28;20196;-45
2023/03/30 05:54:18;;;;;;;3.53;1.10;;;;;;;;;;5027763;28;20021;-47
2023/03/30 05:56:44;;;;;;;3.00;1.00;;;;;;;;;;5027103;28;20037;-45
2023/03/30 05:59:11;;;;;;;5.28;0.93;;;;;;;;;;5028710;28;20467;-45
2023/03/30 06:01:38;;;;;;;3.58;0.65;;;;;;;;;;5027809;28;20092;-45
2023/03/30 06:04:04;;;;;;;2.58;0.98;;;;;;;;;;5028548;28;20017;-47
2023/03/30 06:06:31;;;;;;;2.38;1.00;;;;;;;;;;5010140;28;20037;-48
2023/03/30 06:08:57;;;;;;;4.03;1.15;;;;;;;;;;5025282;28;20029;-44
2023/03/30 06:11:23;;;;;;;4.10;1.10;;;;;;;;;;5008478;28;20042;-47
2023/03/30 06:13:49;;;;;;;4.97;0.88;;;;;;;;;;4990770;28;20037;-46
2023/03/30 06:16:15;;;;;;;5.95;0.93;;;;;;;;;;5008240;28;20039;-45
2023/03/30 06:18:41;;;;;;;2.38;0.77;;;;;;;;;;5007604;28;20057;-47
2023/03/30 06:21:08;;;;;;;3.38;1.00;;;;;;;;;;5008327;28;20053;-47
2023/03/30 06:23:37;;;;;;;2.63;0.95;;;;;;;;;;5008209;28;20088;-45
2023/03/30 06:26:03;;;;;;;3.28;0.80;;;;;;;;;;5008609;28;20034;-46
2023/03/30 06:28:30;;;;;;;2.20;0.75;;;;;;;;;;4999855;28;20053;-46
2023/03/30 06:30:56;;;;;;;2.55;0.95;;;;;;;;;;4988867;28;20553;-45
2023/03/30 06:33:22;;;;;;;3.55;1.15;;;;;;;;;;4988974;28;20084;-45
2023/03/30 06:35:49;;;;;;;5.30;1.00;;;;;;;;;;4988806;28;20027;-46
2023/03/30 06:38:15;;;;;;;4.88;1.13;;;;;;;;;;5001738;28;20038;-45
2023/03/30 06:40:43;;;;;;;3.15;1.05;;;;;;;;;;5004438;28;20030;-45
2023/03/30 06:43:14;;;;;;;3.15;1.10;;;;;;;;;;5008461;28;20033;-44
2023/03/30 06:45:41;;;;;;;4.82;1.25;;;;;;;;;;5010680;28;20030;-45
2023/03/30 06:48:07;;;;;;;4.90;1.17;;;;;;;;;;5007042;28;20037;-46
2023/03/30 06:50:33;;;;;;;6.25;1.15;;;;;;;;;;5011065;28;20417;-44
2023/03/30 06:53:01;;;;;;;4.50;1.38;;;;;;;;;;5009781;28;20037;-45
2023/03/30 06:55:27;;;;;;;5.88;1.30;;;;;;;;;;5010114;28;20445;-47
2023/03/30 06:57:53;;;;;;;4.53;1.20;;;;;;;;;;5010643;28;20213;-44
2023/03/30 07:00:19;;;;;;;5.90;1.45;;;;;;;;;;5009871;28;20026;-45
2023/03/30 07:02:45;;;;;;;5.70;1.30;;;;;;;;;;5009598;28;20036;-46
2023/03/30 07:05:14;;;;;;;4.78;1.42;;;;;;;;;;5010162;28;20137;-46
2023/03/30 07:07:41;;;;;;;3.63;1.25;;;;;;;;;;5008288;28;20350;-46
2023/03/30 07:10:10;;;;;;;2.20;0.90;;;;;;;;;;5021366;28;20453;-46
2023/03/30 07:12:37;;;;;;;4.47;1.00;;;;;;;;;;5045226;28;20491;-46
2023/03/30 07:15:03;;;;;;;4.00;1.02;;;;;;;;;;5027817;28;20037;-45
2023/03/30 07:17:30;;;;;;;3.78;1.15;;;;;;;;;;5025144;28;20029;-48
2023/03/30 07:19:56;;;;;;;3.75;0.95;;;;;;;;;;5030447;28;20459;-45
2023/03/30 07:22:22;;;;;;;4.55;1.00;;;;;;;;;;5029610;28;20025;-46
2023/03/30 07:24:48;;;;;;;6.85;1.45;;;;;;;;;;5029381;28;20104;-44
2023/03/30 07:27:15;;;;;;;3.50;1.20;;;;;;;;;;5029601;28;20017;-46
2023/03/30 07:29:41;;;;;;;3.97;1.13;;;;;;;;;;5029300;28;20034;-49
2023/03/30 07:32:07;;;;;;;2.67;1.33;;;;;;;;;;5029226;28;20424;-45
2023/03/30 07:34:33;;;;;;;3.47;1.20;;;;;;;;;;5029227;28;20124;-47
2023/03/30 07:37:00;;;;;;;5.22;1.33;;;;;;;;;;5028773;28;20024;-49
2023/03/30 07:39:26;;;;;;;3.92;1.17;;;;;;;;;;5011338;28;20483;-47
2023/03/30 07:41:52;;;;;;;3.35;1.02;;;;;;;;;;5029102;28;20026;-45
2023/03/30 07:44:19;;;;;;;4.72;1.55;;;;;;;;;;5028489;28;20018;-48
2023/03/30 07:46:45;;;;;;;4.53;1.10;;;;;;;;;;5028732;28;20476;-48
2023/03/30 07:49:11;;;;;;;3.17;0.95;;;;;;;;;;5028917;28;20057;-47
2023/03/30 07:51:38;;;;;;;5.40;1.48;;;;;;;;;;5029285;28;20028;-46
2023/03/30 07:54:05;;;;;;;2.90;0.80;;;;;;;;;;5028994;28;20157;-45
2023/03/30 07:56:33;;;;;;;4.75;1.25;;;;;;;;;;5029020;28;20104;-48
2023/03/30 07:59:00;;;;;;;3.47;1.08;;;;;;;;;;5028713;28;20033;-45
2023/03/30 08:01:27;;;;;;;2.50;1.10;;;;;;;;;;5027989;28;20360;-45
2023/03/30 08:03:54;;;;;;;4.72;1.10;;;;;;;;;;5028251;28;20030;-45
2023/03/30 08:06:21;;;;;;;4.60;1.35;;;;;;;;;;5028844;28;20567;-46
2023/03/30 08:08:47;;;;;;;7.15;1.20;;;;;;;;;;5028523;28;20032;-47
2023/03/30 08:11:14;;;;;;;4.72;1.63;;;;;;;;;;5028795;28;20037;-45
2023/03/30 08:13:40;;;;;;;3.47;0.98;;;;;;;;;;5011184;28;20067;-44
2023/03/30 08:16:07;;;;;;;8.10;1.42;;;;;;;;;;5028596;28;20069;-47
2023/03/30 08:18:35;;;;;;;5.82;1.42;;;;;;;;;;5028486;28;20481;-45
2023/03/30 08:21:02;;;;;;;4.20;1.65;;;;;;;;;;5028449;28;20539;-45
2023/03/30 08:23:28;;;;;;;6.85;1.38;;;;;;;;;;5028094;28;20034;-47
2023/03/30 08:25:57;;;;;;;3.08;1.30;;;;;;;;;;5028477;28;20029;-45
2023/03/30 08:28:25;;;;;;;3.38;1.20;;;;;;;;;;5027903;28;20117;-45
2023/03/30 08:30:53;;;;;;;2.67;1.17;;;;;;;;;;5028213;28;20029;-47
2023/03/30 08:33:19;;;;;;;3.97;1.08;;;;;;;;;;5028168;28;20033;-48
2023/03/30 08:35:46;;;;;;;2.47;1.00;;;;;;;;;;5028057;28;20409;-46
2023/03/30 08:38:16;;;;;;;4.05;1.10;;;;;;;;;;5028134;28;20044;-45
2023/03/30 08:40:46;;;;;;;3.95;1.02;;;;;;;;;;5028234;28;20124;-44
2023/03/30 08:43:18;;;;;;;4.47;1.13;;;;;;;;;;5029590;28;20029;-45
2023/03/30 08:45:44;;;;;;;5.53;1.30;;;;;;;;;;5029195;28;20021;-46
2023/03/30 08:48:18;;;;;;;4.65;1.38;;;;;;;;;;5028405;28;20036;-47
2023/03/30 08:50:47;;;;;;;1.95;0.90;;;;;;;;;;5017129;28;20479;-46
2023/03/30 08:53:13;;;;;;;3.28;1.20;;;;;;;;;;5027642;28;20373;-46
2023/03/30 08:55:45;;;;;;;8.18;1.67;;;;;;;;;;5027798;28;20056;-45
2023/03/30 08:58:20;;;;;;;4.13;1.40;;;;;;;;;;5027559;28;20040;-48
2023/03/30 09:00:46;;;;;;;4.75;1.17;;;;;;;;;;5024372;28;20401;-44
2023/03/30 09:03:13;;;;;;;4.15;1.60;;;;;;;;;;5027349;28;20044;-48
2023/03/30 09:05:44;;;;;;;3.03;1.00;;;;;;;;;;5027892;28;20013;-45
2023/03/30 09:08:20;;;;;;;5.63;1.33;;;;;;;;;;5035767;28;20028;-45
2023/03/30 09:10:49;;;;;;;5.93;1.27;;;;;;;;;;5028711;28;20508;-45
2023/03/30 09:13:18;;;;;;;3.00;1.00;;;;;;;;;;5027710;28;20496;-45
2023/03/30 09:15:56;;;;;;;2.03;0.98;;;;;;;;;;5026587;28;20591;-45
2023/03/30 09:18:26;;;;;;;3.20;1.10;;;;;;;;;;5027153;28;20038;-45
2023/03/30 09:20:53;;;;;;;6.68;1.67;;;;;;;;;;5027588;28;20021;-45
2023/03/30 09:23:20;;;;;;;4.60;1.20;;;;;;;;;;5026852;28;20084;-47
2023/03/30 09:26:05;;;;;;;4.72;1.48;;;;;;;;;;5027036;28;20531;-45
2023/03/30 09:28:47;;;;;;;2.95;1.00;;;;;;;;;;5026814;28;20025;-45
2023/03/30 09:31:16;;;;;;;4.30;1.15;;;;;;;;;;5027106;28;20056;-44
2023/03/30 09:33:47;;;;;;;7.32;2.45;;;;;;;;;;5009825;28;20152;-47
2023/03/30 09:36:25;;;;;;;3.35;1.15;;;;;;;;;;5027347;28;20045;-44
2023/03/30 09:38:51;;;;;;;4.55;1.67;;;;;;;;;;5026970;28;20037;-46
2023/03/30 09:41:23;;;;;;;6.65;1.45;;;;;;;;;;5027024;28;20032;-45
2023/03/30 09:43:51;;;;;;;5.93;1.42;;;;;;;;;;5026851;28;20026;-46
2023/03/30 09:46:18;;;;;;;3.78;1.15;;;;;;;;;;5027193;28;20040;-46
2023/03/30 09:48:48;;;;;;;3.03;1.00;;;;;;;;;;5027025;28;20017;-47
2023/03/30 09:51:16;;;;;;;3.90;1.27;;;;;;;;;;5027199;28;20038;-47
2023/03/30 09:53:42;;;;;;;3.50;1.73;;;;;;;;;;5027171;28;20418;-47
2023/03/30 09:56:10;;;;;;;5.57;1.60;;;;;;;;;;5027448;28;20025;-45
2023/03/30 09:58:36;;;;;;;4.55;1.40;;;;;;;;;;5008936;28;20049;-48
2023/03/30 10:01:13;;;;;;;6.13;1.40;;;;;;;;;;5026887;28;20069;-46
2023/03/30 10:03:42;;;;;;;2.63;1.35;;;;;;;;;;5027235;28;20025;-48
2023/03/30 10:06:09;;;;;;;4.00;1.35;;;;;;;;;;5027628;28;20033;-46
2023/03/30 10:08:55;;;;;;;5.60;1.30;;;;;;;;;;5027289;28;20028;-47
2023/03/30 10:11:33;;;;;;;4.05;1.15;;;;;;;;;;5007522;28;20034;-45
2023/03/30 10:13:59;;;;;;;3.42;1.25;;;;;;;;;;5011025;28;20022;-44
2023/03/30 10:16:27;;;;;;;2.92;1.40;;;;;;;;;;5011334;28;20091;-45
2023/03/30 10:18:56;;;;;;;2.78;1.25;;;;;;;;;;5011069;28;20034;-45
2023/03/30 10:21:26;;;;;;;4.10;1.27;;;;;;;;;;5011173;28;20041;-45
2023/03/30 10:24:02;;;;;;;4.18;1.15;;;;;;;;;;5010943;28;20413;-46
2023/03/30 10:26:29;;;;;;;6.10;1.52;;;;;;;;;;4993455;28;20026;-46
2023/03/30 10:29:01;;;;;;;5.15;1.45;;;;;;;;;;5010762;28;20022;-48
2023/03/30 10:31:28;;;;;;;3.13;1.48;;;;;;;;;;5011293;28;20048;-45
2023/03/30 10:33:58;;;;;;;3.15;1.00;;;;;;;;;;5010832;28;20065;-49
2023/03/30 10:36:29;;;;;;;4.13;1.25;;;;;;;;;;5010636;28;20453;-46
2023/03/30 10:38:56;;;;;;;5.05;1.25;;;;;;;;;;5010586;28;20466;-45
2023/03/30 10:41:23;;;;;;;2.67;1.05;;;;;;;;;;5010531;28;20590;-46
2023/03/30 10:43:49;;;;;;;1.95;0.95;;;;;;;;;;5010614;28;20029;-46
2023/03/30 10:46:21;;;;;;;3.13;1.10;;;;;;;;;;5010662;28;20034;-47
2023/03/30 10:48:56;;;;;;;2.30;0.90;;;;;;;;;;5010598;28;20013;-46
2023/03/30 10:51:40;;;;;;;3.20;1.25;;;;;;;;;;5010709;28;20034;-46
2023/03/30 10:54:32;;;;;;;4.00;1.52;;;;;;;;;;5010456;28;20026;-48
2023/03/30 10:57:18;;;;;;;3.70;1.33;;;;;;;;;;5007534;28;20056;-47
2023/03/30 10:59:59;;;;;;;3.70;0.90;;;;;;;;;;5008896;28;20428;-46
2023/03/30 11:02:40;;;;;;;2.17;1.27;;;;;;;;;;5004302;28;20073;-44
2023/03/30 11:05:11;;;;;;;3.50;1.20;;;;;;;;;;5005972;28;20022;-48
2023/03/30 11:07:40;;;;;;;4.40;1.42;;;;;;;;;;5024283;28;20037;-45
2023/03/30 11:10:19;;;;;;;5.10;1.60;;;;;;;;;;5009670;28;20052;-47
2023/03/30 11:12:47;;;;;;;3.80;1.00;;;;;;;;;;5009930;28;20025;-48
2023/03/30 11:15:30;;;;;;;2.53;1.10;;;;;;;;;;5008826;28;20547;-46
2023/03/30 11:18:22;;;;;;;2.47;1.25;;;;;;;;;;5008907;28;20371;-45
2023/03/30 11:20:52;;;;;;;3.25;1.10;;;;;;;;;;5001898;28;20053;-48
2023/03/30 11:23:34;;;;;;;4.35;1.40;;;;;;;;;;5009995;28;20714;-46
2023/03/30 11:26:00;;;;;;;3.05;1.30;;;;;;;;;;5008948;28;20421;-46
2023/03/30 11:28:44;;;;;;;3.88;1.33;;;;;;;;;;5009439;28;20041;-44
2023/03/30 11:31:10;;;;;;;;;;;;;;;;;;5009837;28;20038;-44
2023/03/30 11:33:41;;;;;;;4.90;1.70;;;;;;;;;;5009564;28;19932;-45
2023/03/30 11:36:20;;;;;;;5.50;1.88;;;;;;;;;;5009238;28;20112;-47
2023/03/30 11:38:47;;;;;;;6.05;1.65;;;;;;;;;;4991634;28;20041;-46
2023/03/30 11:41:15;;;;;;;8.60;1.50;;;;;;;;;;5008861;28;20164;-45
2023/03/30 11:43:42;;;;;;;2.88;1.38;;;;;;;;;;5008504;28;20026;-45
2023/03/30 11:46:08;;;;;;;4.28;1.30;;;;;;;;;;5009210;28;20440;-46
2023/03/30 11:48:53;;;;;;;5.72;1.40;;;;;;;;;;5009200;28;20363;-47
2023/03/30 11:51:37;;;;;;;3.08;1.45;;;;;;;;;;5009799;28;20077;-45
2023/03/30 11:54:20;;;;;;;1.60;0.95;;;;;;;;;;5008576;28;20065;-47
2023/03/30 11:56:53;;;;;;;3.85;1.40;;;;;;;;;;5008761;28;20030;-47
2023/03/30 11:59:42;;;;;;;4.07;1.42;;;;;;;;;;5009100;28;20048;-45
2023/03/30 12:02:20;;;;;;;4.72;2.00;;;;;;;;;;4980081;28;20134;-45
2023/03/30 12:04:54;;;;;;;3.85;1.30;;;;;;;;;;5009044;28;20113;-44
2023/03/30 12:07:27;;;;;;;7.88;1.88;;;;;;;;;;5008618;28;20022;-48
2023/03/30 12:09:58;;;;;;;2.85;1.40;;;;;;;;;;5018458;28;20116;-45
2023/03/30 12:12:40;;;;;;;4.63;1.25;;;;;;;;;;5027938;28;20053;-49
2023/03/30 12:15:06;;;;;;;8.73;1.90;;;;;;;;;;5028246;28;20021;-45
2023/03/30 12:17:49;;;;;;;3.10;1.33;;;;;;;;;;5027927;28;20455;-46
2023/03/30 12:20:15;;;;;;;8.98;2.05;;;;;;;;;;5028085;28;20029;-45
2023/03/30 12:23:00;;;;;;;3.78;1.25;;;;;;;;;;5028088;28;20087;-45
2023/03/30 12:25:32;;;;;;;4.95;1.40;;;;;;;;;;5027568;28;20025;-48
2023/03/30 12:28:01;;;;;;;6.03;1.67;;;;;;;;;;5028063;28;20602;-47
2023/03/30 12:30:29;;;;;;;3.70;1.70;;;;;;;;;;5028084;28;20160;-45
2023/03/30 12:33:00;;;;;;;4.28;1.67;;;;;;;;;;5028194;28;20112;-46
2023/03/30 12:35:45;;;;;;;3.50;1.10;;;;;;;;;;5027293;28;20509;-45
2023/03/30 12:38:15;;;;;;;3.92;1.40;;;;;;;;;;5027931;28;20060;-45
2023/03/30 12:40:47;;;;;;;4.47;1.52;;;;;;;;;;5023433;28;20407;-46
2023/03/30 12:43:24;;;;;;;3.03;1.20;;;;;;;;;;5008055;28;20149;-45
2023/03/30 12:46:01;;;;;;;3.17;1.38;;;;;;;;;;5020895;28;20071;-49
2023/03/30 12:48:36;;;;;;;1.73;1.10;;;;;;;;;;5027569;28;20033;-45
2023/03/30 12:51:05;;;;;;;4.55;1.40;;;;;;;;;;5027856;28;20025;-46
2023/03/30 12:53:50;;;;;;;3.38;1.52;;;;;;;;;;5027954;28;20037;-45
2023/03/30 12:56:30;;;;;;;2.55;1.20;;;;;;;;;;5028179;28;20033;-46
2023/03/30 12:58:59;;;;;;;4.40;1.42;;;;;;;;;;5027681;28;20108;-46
2023/03/30 13:01:44;;;;;;;4.25;1.40;;;;;;;;;;5027165;28;20029;-45
2023/03/30 13:04:13;;;;;;;4.10;1.58;;;;;;;;;;5026777;28;20022;-48
2023/03/30 13:06:47;;;;;;;4.78;1.80;;;;;;;;;;5027797;28;20030;-48
2023/03/30 13:09:20;;;;;;;5.72;1.80;;;;;;;;;;5021516;28;20042;-46
2023/03/30 13:11:52;;;;;;;4.07;1.35;;;;;;;;;;5007328;28;20022;-46
2023/03/30 13:14:34;;;;;;;2.95;1.35;;;;;;;;;;4989713;28;20069;-45
2023/03/30 13:17:00;;;;;;;2.70;1.40;;;;;;;;;;5007204;28;20026;-46
2023/03/30 13:19:29;;;;;;;4.78;1.70;;;;;;;;;;5007512;28;20084;-46
2023/03/30 13:22:16;;;;;;;3.13;1.15;;;;;;;;;;5007701;28;20100;-44
2023/03/30 13:24:53;;;;;;;5.13;1.30;;;;;;;;;;5000796;28;20045;-45
2023/03/30 13:27:19;;;;;;;3.17;1.40;;;;;;;;;;5007377;28;20104;-45
2023/03/30 13:29:55;;;;;;;2.95;0.90;;;;;;;;;;5006794;28;20497;-45
2023/03/30 13:32:24;;;;;;;2.75;1.10;;;;;;;;;;5006700;28;20128;-47
2023/03/30 13:35:02;;;;;;;3.05;1.55;;;;;;;;;;5017867;28;20024;-46
2023/03/30 13:37:44;;;;;;;3.40;1.30;;;;;;;;;;5007329;28;20030;-46
2023/03/30 13:40:15;;;;;;;3.33;1.20;;;;;;;;;;5006363;28;20061;-46
2023/03/30 13:43:05;;;;;;;4.43;1.38;;;;;;;;;;4989437;28;20458;-47
2023/03/30 13:45:54;;;;;;;3.05;1.30;;;;;;;;;;4987615;28;20034;-49
2023/03/30 13:48:31;;;;;;;3.30;1.25;;;;;;;;;;4989376;28;20026;-45
2023/03/30 13:50:58;;;;;;;4.10;1.10;;;;;;;;;;5007323;28;20063;-47
2023/03/30 13:53:30;;;;;;;1.63;1.15;;;;;;;;;;5007141;28;20040;-48
2023/03/30 13:55:56;;;;;;;3.63;1.10;;;;;;;;;;4989381;28;20444;-46
2023/03/30 13:58:24;;;;;;;3.28;1.60;;;;;;;;;;5007005;28;20080;-47
2023/03/30 14:01:10;;;;;;;3.10;1.00;;;;;;;;;;5006940;28;20038;-47
2023/03/30 14:03:40;;;;;;;3.97;1.23;;;;;;;;;;5006570;28;20045;-45
2023/03/30 14:06:14;;;;;;;2.55;1.23;;;;;;;;;;5007055;28;20033;-46
2023/03/30 14:08:43;;;;;;;3.40;1.25;;;;;;;;;;5007097;28;20025;-47
2023/03/30 14:11:19;;;;;;;2.92;1.40;;;;;;;;;;5025293;28;20044;-47
2023/03/30 14:13:47;;;;;;;2.38;1.17;;;;;;;;;;5025886;28;20613;-48
2023/03/30 14:16:18;;;;;;;3.17;1.60;;;;;;;;;;5025709;28;20033;-48
2023/03/30 14:18:44;;;;;;;3.55;1.58;;;;;;;;;;5025753;28;20052;-48
2023/03/30 14:21:14;;;;;;;2.53;1.30;;;;;;;;;;5026393;28;20030;-45
2023/03/30 14:23:41;;;;;;;3.05;1.38;;;;;;;;;;5026338;28;20458;-47
2023/03/30 14:26:13;;;;;;;2.40;1.17;;;;;;;;;;5026335;28;20057;-47
2023/03/30 14:28:41;;;;;;;3.13;1.38;;;;;;;;;;5026701;28;20033;-45
2023/03/30 14:31:17;;;;;;;3.13;1.17;;;;;;;;;;5025801;28;20030;-46
2023/03/30 14:33:44;;;;;;;3.92;1.30;;;;;;;;;;5025982;28;20037;-46
2023/03/30 14:36:12;;;;;;;4.40;1.50;;;;;;;;;;5026309;28;20029;-45
2023/03/30 14:38:39;;;;;;;2.75;1.30;;;;;;;;;;5026319;28;20030;-44
2023/03/30 14:41:17;;;;;;;2.38;1.30;;;;;;;;;;5026203;28;20021;-45
2023/03/30 14:43:50;;;;;;;2.15;1.05;;;;;;;;;;5024593;28;20524;-45
2023/03/30 14:46:16;;;;;;;2.35;1.23;;;;;;;;;;5024348;28;20071;-46
2023/03/30 14:48:43;;;;;;;3.10;1.35;;;;;;;;;;5017634;28;20058;-46
2023/03/30 14:51:20;;;;;;;3.47;1.45;;;;;;;;;;5006550;28;20030;-44
2023/03/30 14:53:47;;;;;;;3.10;1.20;;;;;;;;;;5024284;28;20061;-45
2023/03/30 14:56:16;;;;;;;2.65;1.23;;;;;;;;;;5006549;28;20036;-46
2023/03/30 14:58:42;;;;;;;2.33;1.10;;;;;;;;;;5027101;28;20025;-45
2023/03/30 15:01:11;;;;;;;1.88;1.23;;;;;;;;;;5027596;28;20479;-45
2023/03/30 15:03:38;;;;;;;2.30;1.30;;;;;;;;;;5027854;28;20650;-48
2023/03/30 15:06:05;;;;;;;3.83;1.60;;;;;;;;;;5028086;28;20021;-45
2023/03/30 15:08:33;;;;;;;5.97;1.52;;;;;;;;;;5028369;28;20086;-45
2023/03/30 15:11:06;;;;;;;4.15;1.70;;;;;;;;;;5029543;28;20037;-45
2023/03/30 15:13:38;;;;;;;3.22;1.48;;;;;;;;;;5029472;28;20103;-46
2023/03/30 15:16:05;;;;;;;2.08;1.38;;;;;;;;;;5029056;28;20900;-47
2023/03/30 15:18:33;;;;;;;3.65;1.63;;;;;;;;;;5029212;28;20021;-47
2023/03/30 15:20:59;;;;;;;2.97;1.40;;;;;;;;;;5029289;28;20409;-45
2023/03/30 15:23:30;;;;;;;2.35;1.40;;;;;;;;;;5028522;28;20485;-46
2023/03/30 15:25:59;;;;;;;2.28;1.35;;;;;;;;;;5028243;28;20033;-45
2023/03/30 15:28:26;;;;;;;3.15;1.33;;;;;;;;;;5029430;28;20028;-45
2023/03/30 15:30:52;;;;;;;4.78;1.55;;;;;;;;;;5029197;28;20033;-47
2023/03/30 15:33:23;;;;;;;1.60;1.02;;;;;;;;;;5029586;28;20076;-47
2023/03/30 15:35:51;;;;;;;2.13;1.00;;;;;;;;;;5029427;28;20052;-46
2023/03/30 15:38:18;;;;;;;1.70;0.90;;;;;;;;;;5029732;28;20567;-47
2023/03/30 15:40:45;;;;;;;0.80;0.68;;;;;;;;;;5029541;28;20025;-45
2023/03/30 15:43:24;;;;;;;1.77;0.82;;;;;;;;;;5029206;28;20473;-46
2023/03/30 15:45:54;;;;;;;1.58;0.90;;;;;;;;;;5029004;28;20591;-47
2023/03/30 15:48:22;;;;;;;2.20;0.90;;;;;;;;;;5028972;28;20079;-47
2023/03/30 15:50:51;;;;;;;1.45;0.88;;;;;;;;;;5028899;28;20120;-47
2023/03/30 15:53:20;;;;;;;1.92;0.93;;;;;;;;;;5029109;28;20033;-45
2023/03/30 15:55:50;;;;;;;3.75;0.98;;;;;;;;;;5029505;28;20064;-46
2023/03/30 15:58:19;;;;;;;1.38;0.93;;;;;;;;;;5029312;28;20035;-47
2023/03/30 16:00:46;;;;;;;2.35;1.02;;;;;;;;;;5029638;28;20523;-49
2023/03/30 16:03:13;;;;;;;2.05;1.20;;;;;;;;;;5028537;28;20025;-46
2023/03/30 16:05:39;;;;;;;3.10;1.58;;;;;;;;;;5028700;28;20448;-49
2023/03/30 16:08:05;;;;;;;4.47;1.90;;;;;;;;;;5028464;28;20191;-46
2023/03/30 16:10:32;;;;;;;3.42;1.60;;;;;;;;;;5026989;28;20049;-48
2023/03/30 16:12:59;;;;;;;2.50;1.58;;;;;;;;;;5028772;28;20610;-48
2023/03/30 16:15:26;;;;;;;4.43;1.40;;;;;;;;;;5028289;28;20029;-45
2023/03/30 16:17:53;;;;;;;1.30;0.90;;;;;;;;;;5027332;28;20155;-46
2023/03/30 16:20:20;;;;;;;2.35;1.25;;;;;;;;;;5028068;28;20070;-47
2023/03/30 16:22:47;;;;;;;2.45;1.00;;;;;;;;;;5028865;28;20061;-46
2023/03/30 16:25:13;;;;;;;1.60;0.90;;;;;;;;;;5028111;28;20053;-46
2023/03/30 16:27:40;;;;;;;1.65;0.80;;;;;;;;;;5028248;28;20099;-45
2023/03/30 16:30:15;;;;;;;2.15;0.90;;;;;;;;;;5028141;28;20017;-45
2023/03/30 16:32:41;;;;;;;1.83;1.13;;;;;;;;;;5028265;28;20481;-46
2023/03/30 16:35:07;;;;;;;3.05;1.05;;;;;;;;;;5028160;28;20546;-45
2023/03/30 16:37:34;;;;;;;2.88;1.30;;;;;;;;;;5027489;28;20152;-45
2023/03/30 16:40:00;;;;;;;2.38;0.90;;;;;;;;;;5027968;28;20104;-45
2023/03/30 16:42:26;;;;;;;1.40;0.63;;;;;;;;;;5027649;28;20041;-45
2023/03/30 16:44:52;;;;;;;0.80;0.80;;;;;;;;;;5028240;28;20048;-49
2023/03/30 16:47:20;;;;;;;1.10;0.80;;;;;;;;;;5027318;28;20030;-46
2023/03/30 16:49:46;;;;;;;1.85;0.90;;;;;;;;;;5028245;28;20112;-47
2023/03/30 16:52:12;;;;;;;1.10;0.75;;;;;;;;;;5027919;28;20044;-49
2023/03/30 16:54:39;;;;;;;2.25;1.10;;;;;;;;;;5027650;28;20029;-46
2023/03/30 16:57:05;;;;;;;1.92;1.05;;;;;;;;;;5026679;28;20535;-45
2023/03/30 16:59:32;;;;;;;2.92;1.20;;;;;;;;;;5016196;28;20064;-45
2023/03/30 17:01:59;;;;;;;4.60;1.40;;;;;;;;;;5006035;28;20567;-46
2023/03/30 17:04:25;;;;;;;2.50;1.10;;;;;;;;;;5021085;28;20025;-46
2023/03/30 17:06:54;;;;;;;2.83;1.38;;;;;;;;;;5009059;28;20623;-47
2023/03/30 17:09:20;;;;;;;2.78;1.33;;;;;;;;;;5026341;28;20056;-47
2023/03/30 17:11:47;;;;;;;3.30;1.40;;;;;;;;;;5027851;28;20104;-46
2023/03/30 17:14:15;;;;;;;2.95;1.30;;;;;;;;;;5027405;28;20095;-45
2023/03/30 17:16:41;;;;;;;3.28;1.58;;;;;;;;;;5027072;28;20033;-46
2023/03/30 17:19:11;;;;;;;2.45;1.20;;;;;;;;;;5026819;28;20025;-47
2023/03/30 17:21:39;;;;;;;2.67;1.33;;;;;;;;;;5026635;28;20060;-45
2023/03/30 17:24:05;;;;;;;4.70;1.40;;;;;;;;;;5024527;28;20044;-46
2023/03/30 17:26:31;;;;;;;2.03;1.15;;;;;;;;;;5026888;28;20101;-45
2023/03/30 17:28:57;;;;;;;3.42;1.23;;;;;;;;;;5023171;28;20425;-47
2023/03/30 17:31:24;;;;;;;2.38;1.10;;;;;;;;;;5025622;28;20044;-46
2023/03/30 17:33:50;;;;;;;1.35;1.10;;;;;;;;;;5008201;28;20669;-48
2023/03/30 17:36:23;;;;;;;2.65;1.20;;;;;;;;;;5026330;28;20535;-46
2023/03/30 17:38:50;;;;;;;2.75;1.10;;;;;;;;;;5025803;28;20029;-48
2023/03/30 17:41:18;;;;;;;3.25;1.33;;;;;;;;;;5025754;28;20033;-47
2023/03/30 17:43:46;;;;;;;1.92;1.10;;;;;;;;;;5025884;28;20029;-47
2023/03/30 17:46:13;;;;;;;2.05;1.23;;;;;;;;;;5007774;28;20033;-50
2023/03/30 17:48:39;;;;;;;3.17;1.30;;;;;;;;;;5028703;28;20056;-46
2023/03/30 17:51:05;;;;;;;1.85;1.27;;;;;;;;;;5025416;28;20064;-46
2023/03/30 17:53:31;;;;;;;3.40;1.45;;;;;;;;;;5025325;28;20464;-48
2023/03/30 17:55:57;;;;;;;3.45;1.40;;;;;;;;;;5040390;28;20035;-49
2023/03/30 17:58:31;;;;;;;2.63;1.25;;;;;;;;;;5024137;28;20273;-48
2023/03/30 18:00:58;;;;;;;5.03;2.10;;;;;;;;;;5040048;28;20091;-46
2023/03/30 18:03:24;;;;;;;3.08;1.80;;;;;;;;;;5023872;28;20029;-49
2023/03/30 18:05:51;;;;;;;6.80;3.05;;;;;;;;;;5025328;28;20029;-46
2023/03/30 18:08:20;;;;;;;5.75;2.45;;;;;;;;;;5025401;28;20029;-46
2023/03/30 18:10:50;;;;;;;4.28;2.50;;;;;;;;;;5025276;28;20558;-45
2023/03/30 18:13:16;;;;;;;14.60;8.50;;;;;;;;;;5024574;28;20025;-46
2023/03/30 18:15:44;;;;;;;12.70;7.60;;;;;;;;;;5023873;28;20033;-48
2023/03/30 18:18:10;;;;;;;9.82;4.75;;;;;;;;;;5024216;28;20030;-49
2023/03/30 18:20:39;;;;;;;6.75;3.63;;;;;;;;;;5023753;28;20069;-47
2023/03/30 18:23:05;;;;;;;5.50;3.03;;;;;;;;;;5023633;28;20412;-46
2023/03/30 18:25:31;;;;;;;4.00;2.60;;;;;;;;;;5024517;28;20033;-48
2023/03/30 18:27:58;;;;;;;4.53;2.88;;;;;;;;;;5024513;28;20033;-46
2023/03/30 18:30:24;;;;;;;5.30;3.80;;;;;;;;;;5023435;28;20492;-47
2023/03/30 18:32:51;;;;;;;5.55;3.53;;;;;;;;;;5025497;28;20029;-46
2023/03/30 18:35:17;;;;;;;4.63;2.90;;;;;;;;;;5029557;28;20036;-47
2023/03/30 18:37:44;;;;;;;5.78;3.25;;;;;;;;;;5011280;28;20024;-47
2023/03/30 18:40:22;;;;;;;6.03;3.80;;;;;;;;;;5028939;28;20083;-46
2023/03/30 18:42:48;;;;;;;4.75;3.42;;;;;;;;;;5029052;28;20025;-47
2023/03/30 18:45:19;;;;;;;4.43;2.70;;;;;;;;;;5011348;28;20432;-46
2023/03/30 18:47:45;;;;;;;3.70;2.15;;;;;;;;;;5029759;28;20124;-47
2023/03/30 18:50:22;;;;;;;5.10;2.78;;;;;;;;;;5010500;28;20627;-48
2023/03/30 18:52:49;;;;;;;4.22;2.50;;;;;;;;;;5029585;28;20492;-49
2023/03/30 18:55:16;;;;;;;5.07;2.75;;;;;;;;;;5029233;28;20036;-47
2023/03/30 18:57:43;;;;;;;6.25;2.40;;;;;;;;;;5040781;28;20030;-48
2023/03/30 19:00:12;;;;;;;5.82;2.15;;;;;;;;;;5027991;28;20509;-50
2023/03/30 19:02:38;;;;;;;5.25;2.67;;;;;;;;;;5012450;28;20053;-47
2023/03/30 19:05:05;;;;;;;4.20;2.55;;;;;;;;;;5028288;28;20025;-47
2023/03/30 19:07:31;;;;;;;3.03;1.90;;;;;;;;;;5028452;28;20037;-49
2023/03/30 19:09:57;;;;;;;2.60;1.90;;;;;;;;;;5028634;28;20037;-48
2023/03/30 19:12:23;;;;;;;2.72;2.00;;;;;;;;;;5027812;28;20033;-48
2023/03/30 19:14:49;;;;;;;4.13;1.90;;;;;;;;;;5028307;28;20493;-47
2023/03/30 19:17:15;;;;;;;5.20;2.25;;;;;;;;;;5028769;28;20432;-47
2023/03/30 19:19:41;;;;;;;3.10;1.80;;;;;;;;;;5027627;28;20125;-46
2023/03/30 19:22:07;;;;;;;4.20;2.00;;;;;;;;;;5027889;28;20049;-50
2023/03/30 19:24:34;;;;;;;3.95;1.70;;;;;;;;;;5028765;28;20021;-46
2023/03/30 19:27:00;;;;;;;4.50;2.05;;;;;;;;;;5028597;28;20705;-48
2023/03/30 19:29:27;;;;;;;4.80;1.90;;;;;;;;;;5028064;28;20113;-47
2023/03/30 19:31:57;;;;;;;4.35;1.70;;;;;;;;;;5028052;28;20044;-47
2023/03/30 19:34:23;;;;;;;5.10;2.28;;;;;;;;;;5009928;28;20036;-48
2023/03/30 19:36:50;;;;;;;3.30;2.00;;;;;;;;;;5027885;28;20101;-47
2023/03/30 19:39:16;;;;;;;4.22;2.10;;;;;;;;;;5028483;28;20021;-47
2023/03/30 19:41:42;;;;;;;5.63;2.50;;;;;;;;;;5028413;28;20664;-49
2023/03/30 19:44:08;;;;;;;4.63;1.98;;;;;;;;;;5027693;28;20026;-47
2023/03/30 19:46:36;;;;;;;3.70;1.63;;;;;;;;;;5027935;28;20052;-47
2023/03/30 19:49:02;;;;;;;3.28;1.65;;;;;;;;;;5028411;28;20025;-49
2023/03/30 19:51:29;;;;;;;5.70;2.50;;;;;;;;;;5027990;28;20025;-49
2023/03/30 19:53:56;;;;;;;4.43;1.77;;;;;;;;;;5027960;28;20026;-48
2023/03/30 19:56:23;;;;;;;4.88;1.98;;;;;;;;;;5028027;28;20025;-51
2023/03/30 19:58:50;;;;;;;4.70;2.15;;;;;;;;;;5027150;28;20244;-49
2023/03/30 20:01:16;;;;;;;4.65;2.10;;;;;;;;;;5010441;28;20030;-49